Time;durP1;ratioP1;P1;durP2;ratioP2;P2;SDS_P1;SDS_P2;PMS_P1;PMS_P2;Temp;Humidity;BMP_temperature;BMP_pressure;BME280_temperature;BME280_humidity;BME280_pressure;Samples;Min_cycle;Max_cycle;Signal;HPM_P1;HPM_P2
2023/01/05 00:01:04;;;;;;;22.90;14.68;;;;;;;;;;10395782;28;20082;-60
2023/01/05 00:06:05;;;;;;;20.15;14.13;;;;;;;;;;10367449;28;20087;-60
2023/01/05 00:27:03;;;;;;;17.67;13.00;;;;;;;;;;10372788;28;19918;-60
2023/01/05 00:32:04;;;;;;;21.33;13.20;;;;;;;;;;10378216;28;20425;-60
2023/01/05 00:37:04;;;;;;;21.55;14.02;;;;;;;;;;10396528;28;20041;-59
2023/01/05 00:42:04;;;;;;;29.63;14.18;;;;;;;;;;10403085;28;20029;-59
2023/01/05 00:47:04;;;;;;;18.23;13.70;;;;;;;;;;10390385;28;20474;-59
2023/01/05 00:52:05;;;;;;;18.77;13.07;;;;;;;;;;10393017;28;20036;-57
2023/01/05 00:57:06;;;;;;;22.30;13.60;;;;;;;;;;10388171;28;20038;-59
2023/01/05 01:02:06;;;;;;;16.92;13.40;;;;;;;;;;10381204;28;20114;-59
2023/01/05 01:07:06;;;;;;;17.30;12.55;;;;;;;;;;10374097;28;20096;-60
2023/01/05 01:12:07;;;;;;;18.73;13.07;;;;;;;;;;10378107;28;20040;-60
2023/01/05 01:17:07;;;;;;;20.20;12.13;;;;;;;;;;10396002;28;20026;-60
2023/01/05 01:22:07;;;;;;;17.05;13.65;;;;;;;;;;10371444;28;20461;-56
2023/01/05 01:27:08;;;;;;;20.80;12.70;;;;;;;;;;10354113;28;20378;-60
2023/01/05 01:32:08;;;;;;;19.45;13.20;;;;;;;;;;10376840;28;20034;-60
2023/01/05 01:37:08;;;;;;;20.77;14.02;;;;;;;;;;10372637;28;20034;-60
2023/01/05 01:42:13;;;;;;;18.13;12.90;;;;;;;;;;10408939;28;20132;-60
2023/01/05 01:47:15;;;;;;;18.95;13.38;;;;;;;;;;10375034;28;20456;-58
2023/01/05 01:52:16;;;;;;;18.13;12.80;;;;;;;;;;10377924;28;20030;-60
2023/01/05 01:57:16;;;;;;;19.67;12.63;;;;;;;;;;10374628;28;20033;-60
2023/01/05 02:02:17;;;;;;;17.80;12.93;;;;;;;;;;10405741;28;20372;-60
2023/01/05 02:07:17;;;;;;;17.70;13.80;;;;;;;;;;10395918;28;20033;-61
2023/01/05 02:12:18;;;;;;;18.40;13.43;;;;;;;;;;10390664;28;20071;-60
2023/01/05 02:17:24;;;;;;;17.17;12.23;;;;;;;;;;10374380;28;20078;-59
2023/01/05 02:22:43;;;;;;;15.65;12.75;;;;;;;;;;10380598;28;20113;-61
2023/01/05 02:28:01;;;;;;;16.77;12.25;;;;;;;;;;10407181;28;20466;-60
2023/01/05 02:33:02;;;;;;;;;;;;;;;;;;10393530;28;20034;-54
2023/01/05 02:38:21;;;;;;;14.50;11.70;;;;;;;;;;10403046;28;19916;-51
2023/01/05 02:43:21;;;;;;;15.82;11.88;;;;;;;;;;10401825;28;20101;-57
2023/01/05 02:48:21;;;;;;;15.68;11.65;;;;;;;;;;10400899;28;20228;-53
2023/01/05 02:53:27;;;;;;;15.23;11.50;;;;;;;;;;10384202;28;20091;-54
2023/01/05 02:58:38;;;;;;;14.32;11.60;;;;;;;;;;10398027;28;21068;-50
2023/01/05 03:03:38;;;;;;;14.90;12.15;;;;;;;;;;10394931;28;20036;-52
2023/01/05 03:08:44;;;;;;;17.05;11.43;;;;;;;;;;10382995;28;20029;-52
2023/01/05 03:13:47;;;;;;;16.38;11.75;;;;;;;;;;10391892;28;20079;-55
2023/01/05 03:40:20;;;;;;;16.33;10.88;;;;;;;;;;10390306;28;20492;-53
2023/01/05 03:45:21;;;;;;;15.88;11.02;;;;;;;;;;10380562;28;20049;-52
2023/01/05 03:50:21;;;;;;;13.38;10.63;;;;;;;;;;10385147;28;20034;-52
2023/01/05 03:55:22;;;;;;;14.73;10.77;;;;;;;;;;10405698;28;20032;-51
2023/01/05 04:00:24;;;;;;;15.10;11.48;;;;;;;;;;10389024;28;20029;-54
2023/01/05 04:05:24;;;;;;;13.88;11.48;;;;;;;;;;10404491;28;20048;-58
2023/01/05 04:10:24;;;;;;;14.43;11.53;;;;;;;;;;10396226;28;20033;-54
2023/01/05 04:15:25;;;;;;;13.50;10.90;;;;;;;;;;10399196;28;20064;-52
2023/01/05 04:20:25;;;;;;;15.73;11.20;;;;;;;;;;10378764;28;20101;-54
2023/01/05 04:25:26;;;;;;;13.80;10.30;;;;;;;;;;10374100;28;20482;-48
2023/01/05 04:30:26;;;;;;;14.27;11.27;;;;;;;;;;10398518;28;20071;-51
2023/01/05 04:35:26;;;;;;;14.30;11.10;;;;;;;;;;10378418;28;20032;-51
2023/01/05 04:40:26;;;;;;;16.52;11.77;;;;;;;;;;10389924;28;20099;-54
2023/01/05 04:45:27;;;;;;;15.43;11.25;;;;;;;;;;10395296;28;20028;-52
2023/01/05 04:50:28;;;;;;;12.77;10.80;;;;;;;;;;10382943;28;20395;-52
2023/01/05 04:55:28;;;;;;;13.70;11.07;;;;;;;;;;10380946;28;20034;-54
2023/01/05 05:00:31;;;;;;;14.25;11.32;;;;;;;;;;10374519;28;20034;-53
2023/01/05 05:05:32;;;;;;;14.55;11.07;;;;;;;;;;10386283;28;20102;-49
2023/01/05 05:10:32;;;;;;;13.57;11.15;;;;;;;;;;10397299;28;20094;-55
2023/01/05 05:15:32;;;;;;;13.10;10.93;;;;;;;;;;10388761;28;20722;-53
2023/01/05 05:20:32;;;;;;;14.05;10.95;;;;;;;;;;10384508;28;20026;-52
2023/01/05 05:25:33;;;;;;;13.07;11.02;;;;;;;;;;10397605;28;20053;-54
2023/01/05 05:30:33;;;;;;;12.48;10.57;;;;;;;;;;10388289;28;20029;-51
2023/01/05 05:35:33;;;;;;;11.85;10.48;;;;;;;;;;10406190;28;20468;-52
2023/01/05 05:40:33;;;;;;;13.57;10.88;;;;;;;;;;10408833;28;20022;-52
2023/01/05 05:45:34;;;;;;;14.80;10.55;;;;;;;;;;10402259;28;20026;-53
2023/01/05 05:50:34;;;;;;;13.57;10.32;;;;;;;;;;10405592;28;20099;-52
2023/01/05 05:55:34;;;;;;;13.13;10.73;;;;;;;;;;10396029;28;20033;-53
2023/01/05 06:00:35;;;;;;;14.43;11.10;;;;;;;;;;10380997;28;20022;-53
2023/01/05 06:05:35;;;;;;;12.15;10.52;;;;;;;;;;10387788;28;20037;-55
2023/01/05 06:10:35;;;;;;;12.93;10.70;;;;;;;;;;10369695;28;20026;-49
2023/01/05 06:15:36;;;;;;;13.25;10.82;;;;;;;;;;10370263;28;20476;-49
2023/01/05 06:20:36;;;;;;;13.18;10.45;;;;;;;;;;10366813;28;20052;-52
2023/01/05 06:25:36;;;;;;;14.77;10.33;;;;;;;;;;10367620;28;20382;-53
2023/01/05 06:30:36;;;;;;;14.63;10.30;;;;;;;;;;10370028;28;20026;-53
2023/01/05 06:35:37;;;;;;;15.02;10.38;;;;;;;;;;10368010;28;20041;-54
2023/01/05 06:40:43;;;;;;;13.13;10.45;;;;;;;;;;10368448;28;20032;-53
2023/01/05 06:45:43;;;;;;;16.15;9.48;;;;;;;;;;10369958;28;20130;-55
2023/01/05 06:50:43;;;;;;;11.30;9.40;;;;;;;;;;10368157;28;20116;-53
2023/01/05 06:55:44;;;;;;;11.18;9.15;;;;;;;;;;10368706;28;20026;-49
2023/01/05 07:00:44;;;;;;;11.43;9.25;;;;;;;;;;10370636;28;20034;-52
2023/01/05 07:05:44;;;;;;;21.02;10.70;;;;;;;;;;10401717;28;20446;-52
2023/01/05 07:10:45;;;;;;;14.93;10.13;;;;;;;;;;10395809;28;20026;-54
2023/01/05 07:15:45;;;;;;;13.63;10.40;;;;;;;;;;10389755;28;20033;-53
2023/01/05 07:20:45;;;;;;;15.68;11.05;;;;;;;;;;10378160;28;20030;-49
2023/01/05 07:25:45;;;;;;;20.40;11.00;;;;;;;;;;10375208;28;20184;-50
2023/01/05 07:30:50;;;;;;;25.48;11.40;;;;;;;;;;10383940;28;20032;-51
2023/01/05 07:35:50;;;;;;;21.58;10.38;;;;;;;;;;10402578;28;20241;-49
2023/01/05 07:40:50;;;;;;;16.98;10.73;;;;;;;;;;10373552;28;20592;-50
2023/01/05 07:45:50;;;;;;;21.25;11.23;;;;;;;;;;10369746;28;20485;-52
2023/01/05 07:50:51;;;;;;;18.05;10.25;;;;;;;;;;10371787;28;20018;-62
2023/01/05 07:55:58;;;;;;;13.57;10.20;;;;;;;;;;10379909;28;20033;-56
2023/01/05 08:01:02;;;;;;;14.35;10.10;;;;;;;;;;10388008;28;20474;-58
2023/01/05 08:06:13;;;;;;;12.40;9.43;;;;;;;;;;10403081;28;20381;-57
2023/01/05 08:11:14;;;;;;;18.05;10.20;;;;;;;;;;10398316;28;20056;-53
2023/01/05 08:16:14;;;;;;;13.32;9.35;;;;;;;;;;10393024;28;20115;-54
2023/01/05 08:21:14;;;;;;;16.38;10.13;;;;;;;;;;10378431;28;20157;-53
2023/01/05 08:26:16;;;;;;;13.85;10.25;;;;;;;;;;10379017;28;20053;-54
2023/01/05 08:31:24;;;;;;;12.35;9.70;;;;;;;;;;10373514;28;20044;-55
2023/01/05 08:36:25;;;;;;;11.77;9.35;;;;;;;;;;10368214;28;20061;-55
2023/01/05 08:41:27;;;;;;;10.30;8.97;;;;;;;;;;10403000;28;20061;-57
2023/01/05 08:46:28;;;;;;;15.32;9.57;;;;;;;;;;10401286;28;20041;-56
2023/01/05 08:51:29;;;;;;;14.60;9.43;;;;;;;;;;10398616;28;20025;-56
2023/01/05 08:56:29;;;;;;;17.13;8.48;;;;;;;;;;10391892;28;20034;-58
2023/01/05 09:01:30;;;;;;;12.85;8.73;;;;;;;;;;10387782;28;20033;-54
2023/01/05 09:06:30;;;;;;;12.27;8.50;;;;;;;;;;10410126;28;20025;-54
2023/01/05 09:11:30;;;;;;;12.38;9.15;;;;;;;;;;10403553;28;20025;-54
2023/01/05 09:16:32;;;;;;;9.80;8.80;;;;;;;;;;10397455;28;20496;-52
2023/01/05 09:21:32;;;;;;;11.40;9.05;;;;;;;;;;10399976;28;20032;-52
2023/01/05 09:26:33;;;;;;;11.77;8.43;;;;;;;;;;10401952;28;20076;-51
2023/01/05 09:31:33;;;;;;;10.57;8.25;;;;;;;;;;10399869;28;20362;-53
2023/01/05 09:36:33;;;;;;;12.70;8.60;;;;;;;;;;10410971;28;20059;-54
2023/01/05 09:41:35;;;;;;;10.48;8.15;;;;;;;;;;10407538;28;20025;-53
2023/01/05 09:46:38;;;;;;;11.50;9.18;;;;;;;;;;10401334;28;20550;-50
2023/01/05 09:51:39;;;;;;;15.40;9.00;;;;;;;;;;10395191;28;20109;-55
2023/01/05 09:56:41;;;;;;;13.88;8.43;;;;;;;;;;10407973;28;20023;-53
2023/01/05 10:01:43;;;;;;;11.65;8.57;;;;;;;;;;10389471;28;20056;-52
2023/01/05 10:06:45;;;;;;;11.23;8.82;;;;;;;;;;10408746;28;20026;-55
2023/01/05 10:17:08;;;;;;;8.45;7.30;;;;;;;;;;10399191;28;20120;-51
2023/01/05 10:22:27;;;;;;;9.85;7.78;;;;;;;;;;10382939;28;20025;-55
2023/01/05 10:27:33;;;;;;;9.60;7.75;;;;;;;;;;10385226;28;20481;-54
2023/01/05 10:32:57;;;;;;;10.05;8.02;;;;;;;;;;10386972;28;20033;-51
2023/01/05 10:37:57;;;;;;;9.63;7.13;;;;;;;;;;10373477;28;20045;-52
2023/01/05 10:42:58;;;;;;;9.98;8.45;;;;;;;;;;10402322;28;20088;-55
2023/01/05 10:47:58;;;;;;;9.88;7.63;;;;;;;;;;10395823;28;20022;-53
2023/01/05 10:53:00;;;;;;;12.63;8.75;;;;;;;;;;10389231;28;20469;-51
2023/01/05 10:58:00;;;;;;;9.05;7.55;;;;;;;;;;10383470;28;20053;-53
2023/01/05 11:03:02;;;;;;;10.85;8.23;;;;;;;;;;10401114;28;20105;-54
2023/01/05 11:08:06;;;;;;;9.00;7.30;;;;;;;;;;10400439;28;20025;-50
2023/01/05 11:13:15;;;;;;;8.10;7.30;;;;;;;;;;10395662;28;20163;-53
2023/01/05 11:18:24;;;;;;;9.77;7.60;;;;;;;;;;10382447;28;20033;-53
2023/01/05 11:23:32;;;;;;;8.75;7.82;;;;;;;;;;10384101;28;20025;-57
2023/01/05 11:28:34;;;;;;;9.10;7.70;;;;;;;;;;10367750;28;20417;-49
2023/01/05 11:33:38;;;;;;;9.38;7.13;;;;;;;;;;10369998;28;20044;-53
2023/01/05 11:38:39;;;;;;;8.57;7.15;;;;;;;;;;10396162;28;20060;-54
2023/01/05 11:43:39;;;;;;;10.38;8.05;;;;;;;;;;10401180;28;20028;-53
2023/01/05 11:48:45;;;;;;;9.20;6.63;;;;;;;;;;10398426;28;20366;-52
2023/01/05 11:53:47;;;;;;;8.23;7.05;;;;;;;;;;10370511;28;20046;-49
2023/01/05 11:58:53;;;;;;;10.27;7.47;;;;;;;;;;10368616;28;20076;-53
2023/01/05 12:03:56;;;;;;;9.98;7.43;;;;;;;;;;10382001;28;20041;-53
2023/01/05 12:09:17;;;;;;;8.38;6.95;;;;;;;;;;10377478;28;20038;-51
2023/01/05 12:14:23;;;;;;;8.65;7.43;;;;;;;;;;10392225;28;20030;-51
2023/01/05 12:19:31;;;;;;;12.20;7.20;;;;;;;;;;10386859;28;20037;-52
2023/01/05 12:24:44;;;;;;;9.57;7.10;;;;;;;;;;10387834;28;20087;-54
2023/01/05 12:30:14;;;;;;;11.50;7.63;;;;;;;;;;10385107;28;20065;-53
2023/01/05 12:35:37;;;;;;;9.13;7.13;;;;;;;;;;10371936;28;20049;-53
2023/01/05 12:40:40;;;;;;;9.05;7.22;;;;;;;;;;10402844;28;20511;-52
2023/01/05 12:45:54;;;;;;;9.45;6.90;;;;;;;;;;10398515;28;20033;-52
2023/01/05 12:51:12;;;;;;;8.75;7.70;;;;;;;;;;10389302;28;20481;-52
2023/01/05 12:56:16;;;;;;;8.68;7.47;;;;;;;;;;10373195;28;20171;-54
2023/01/05 13:01:20;;;;;;;7.95;6.75;;;;;;;;;;10379064;28;20117;-52
2023/01/05 13:06:21;;;;;;;9.30;7.13;;;;;;;;;;10379520;28;20032;-54
2023/01/05 13:11:28;;;;;;;10.65;7.38;;;;;;;;;;10381455;28;20026;-57
2023/01/05 13:16:31;;;;;;;7.63;6.82;;;;;;;;;;10380935;28;20503;-52
2023/01/05 13:21:32;;;;;;;8.77;7.10;;;;;;;;;;10372719;28;20388;-54
2023/01/05 13:26:32;;;;;;;12.30;7.22;;;;;;;;;;10373853;28;20050;-53
2023/01/05 13:31:32;;;;;;;7.87;6.60;;;;;;;;;;10351920;28;20026;-50
2023/01/05 13:36:35;;;;;;;9.05;7.28;;;;;;;;;;10371579;28;20273;-49
2023/01/05 13:42:05;;;;;;;9.77;7.20;;;;;;;;;;10371589;28;20026;-54
2023/01/05 13:47:24;;;;;;;9.70;7.10;;;;;;;;;;10354970;28;20049;-53
2023/01/05 13:52:24;;;;;;;;;;;;;;;;;;10372085;28;20473;-55
2023/01/05 13:57:25;;;;;;;7.75;6.50;;;;;;;;;;10373273;28;19913;-50
2023/01/05 14:02:28;;;;;;;9.50;6.53;;;;;;;;;;10373205;28;20021;-54
2023/01/05 14:07:29;;;;;;;8.10;6.70;;;;;;;;;;10392544;28;20029;-53
2023/01/05 14:12:44;;;;;;;9.32;7.20;;;;;;;;;;10370529;28;20461;-51
2023/01/05 14:17:54;;;;;;;18.00;7.43;;;;;;;;;;10368487;28;20402;-56
2023/01/05 14:22:55;;;;;;;47.92;8.35;;;;;;;;;;10390960;28;20061;-44
2023/01/05 14:28:33;;;;;;;49.85;7.75;;;;;;;;;;10370254;28;20430;-44
2023/01/05 14:33:44;;;;;;;29.40;6.97;;;;;;;;;;10242324;29;20471;-56
2023/01/05 14:38:46;;;;;;;25.85;8.15;;;;;;;;;;10243071;29;20038;-59
2023/01/05 14:43:54;;;;;;;17.70;8.10;;;;;;;;;;10242212;28;20047;-60
2023/01/05 14:48:57;;;;;;;14.15;7.38;;;;;;;;;;10242364;29;20031;-59
2023/01/05 14:54:05;;;;;;;12.75;7.53;;;;;;;;;;10242222;29;20097;-61
2023/01/05 14:59:06;;;;;;;;;;;;;;;;;;10226516;29;20059;-62
2023/01/05 15:04:07;;;;;;;11.65;7.18;;;;;;;;;;10356145;28;19917;-63
2023/01/05 15:09:08;;;;;;;16.25;7.68;;;;;;;;;;10404804;28;20045;-63
2023/01/05 15:14:36;;;;;;;13.18;7.13;;;;;;;;;;10401980;28;20034;-63
2023/01/05 15:19:46;;;;;;;8.90;6.90;;;;;;;;;;10370086;28;20029;-60
2023/01/05 15:30:08;;;;;;;12.18;6.75;;;;;;;;;;10366799;28;20088;-52
2023/01/05 15:35:08;;;;;;;18.40;7.05;;;;;;;;;;10375620;28;20271;-51
2023/01/05 15:40:14;;;;;;;10.20;6.60;;;;;;;;;;10327492;28;20189;-54
2023/01/05 15:45:21;;;;;;;14.55;6.68;;;;;;;;;;10328118;28;20069;-50
2023/01/05 15:50:22;;;;;;;11.32;7.30;;;;;;;;;;10328042;28;20045;-60
2023/01/05 15:55:23;;;;;;;8.93;6.72;;;;;;;;;;10316283;28;20110;-60
2023/01/05 16:00:26;;;;;;;12.63;7.03;;;;;;;;;;10315159;28;20037;-58
2023/01/05 16:05:27;;;;;;;13.05;6.82;;;;;;;;;;10323889;28;20042;-62
2023/01/05 16:10:44;;;;;;;11.25;6.85;;;;;;;;;;10323293;28;20018;-49
2023/01/05 16:15:47;;;;;;;8.85;6.78;;;;;;;;;;10345072;28;20088;-52
2023/01/05 16:20:48;;;;;;;9.25;7.00;;;;;;;;;;10328527;28;20478;-54
2023/01/05 16:25:50;;;;;;;8.98;6.20;;;;;;;;;;10326355;28;20494;-50
2023/01/05 16:30:51;;;;;;;19.77;7.20;;;;;;;;;;10325163;28;20026;-51
2023/01/05 16:36:04;;;;;;;9.95;7.07;;;;;;;;;;10330218;28;20034;-49
2023/01/05 16:41:09;;;;;;;16.98;7.68;;;;;;;;;;10327032;28;20042;-49
2023/01/05 16:46:15;;;;;;;9.13;6.95;;;;;;;;;;10324511;28;20113;-58
2023/01/05 16:51:17;;;;;;;11.18;7.75;;;;;;;;;;10325577;28;20034;-48
2023/01/05 16:56:19;;;;;;;14.25;7.45;;;;;;;;;;10325096;28;20542;-50
2023/01/05 17:01:24;;;;;;;16.35;7.70;;;;;;;;;;10341495;28;20038;-57
2023/01/05 17:06:27;;;;;;;18.75;7.30;;;;;;;;;;10343285;28;20337;-58
2023/01/05 17:11:33;;;;;;;20.70;7.20;;;;;;;;;;10332168;28;20032;-58
2023/01/05 17:16:34;;;;;;;16.67;7.80;;;;;;;;;;10331418;28;20030;-58
2023/01/05 17:21:34;;;;;;;13.65;7.15;;;;;;;;;;10326611;28;20101;-59
2023/01/05 17:26:36;;;;;;;12.77;6.68;;;;;;;;;;10330826;28;20053;-57
2023/01/05 17:31:37;;;;;;;11.13;7.30;;;;;;;;;;10324132;28;20076;-60
2023/01/05 17:36:37;;;;;;;10.63;7.07;;;;;;;;;;10315857;28;20125;-60
2023/01/05 17:41:37;;;;;;;16.02;8.13;;;;;;;;;;10330608;28;20030;-60
2023/01/05 17:46:40;;;;;;;12.68;7.68;;;;;;;;;;10330974;28;20138;-60
2023/01/05 17:51:40;;;;;;;10.40;6.93;;;;;;;;;;10330193;28;20026;-60
2023/01/05 17:56:41;;;;;;;12.40;8.30;;;;;;;;;;10331030;28;20018;-60
2023/01/05 18:01:41;;;;;;;12.63;7.67;;;;;;;;;;10332103;28;20500;-60
2023/01/05 18:06:41;;;;;;;10.50;7.38;;;;;;;;;;10329509;28;20460;-60
2023/01/05 18:11:42;;;;;;;9.85;6.05;;;;;;;;;;10329294;28;20026;-60
2023/01/05 18:16:45;;;;;;;12.55;8.00;;;;;;;;;;10327612;28;20019;-61
2023/01/05 18:21:45;;;;;;;9.65;6.70;;;;;;;;;;10298042;28;20026;-60
2023/01/05 18:26:47;;;;;;;11.40;7.18;;;;;;;;;;10301381;28;20050;-60
2023/01/05 18:31:47;;;;;;;15.50;7.40;;;;;;;;;;10301277;28;20515;-59
2023/01/05 18:36:47;;;;;;;15.43;7.35;;;;;;;;;;10329988;28;20030;-60
2023/01/05 18:41:48;;;;;;;23.48;7.60;;;;;;;;;;10325290;28;20544;-55
2023/01/05 18:46:49;;;;;;;25.00;8.05;;;;;;;;;;10321464;28;20465;-46
2023/01/05 18:51:51;;;;;;;19.17;8.32;;;;;;;;;;10334929;28;20026;-46
2023/01/05 18:56:52;;;;;;;18.85;8.05;;;;;;;;;;10322911;28;20389;-56
2023/01/05 19:01:53;;;;;;;20.30;7.63;;;;;;;;;;10342343;28;20026;-56
2023/01/05 19:06:54;;;;;;;17.17;8.15;;;;;;;;;;10328914;28;20026;-50
2023/01/05 19:11:55;;;;;;;22.00;8.77;;;;;;;;;;10328681;28;20029;-55
2023/01/05 19:16:55;;;;;;;16.08;7.78;;;;;;;;;;10328329;28;20393;-56
2023/01/05 19:21:56;;;;;;;17.65;8.40;;;;;;;;;;10336695;28;20026;-55
2023/01/05 19:26:57;;;;;;;16.98;8.27;;;;;;;;;;10355897;28;20053;-53
2023/01/05 19:31:57;;;;;;;21.55;7.88;;;;;;;;;;10361094;28;20022;-52
2023/01/05 19:36:58;;;;;;;17.13;8.57;;;;;;;;;;10348276;28;20021;-52
2023/01/05 19:41:58;;;;;;;11.40;7.75;;;;;;;;;;10330878;28;20213;-52
2023/01/05 19:46:59;;;;;;;13.13;7.80;;;;;;;;;;10336205;28;20033;-52
2023/01/05 19:51:59;;;;;;;15.73;8.00;;;;;;;;;;10342510;28;20032;-49
2023/01/05 19:57:00;;;;;;;12.73;8.07;;;;;;;;;;10342385;28;20092;-51
2023/01/05 20:02:03;;;;;;;14.60;7.93;;;;;;;;;;10338790;28;20385;-54
2023/01/05 20:07:08;;;;;;;9.82;7.75;;;;;;;;;;10329498;28;20110;-50
2023/01/05 20:12:09;;;;;;;12.38;7.53;;;;;;;;;;10332728;28;20037;-46
2023/01/05 20:17:11;;;;;;;11.63;8.27;;;;;;;;;;10341734;28;20029;-49
2023/01/05 20:22:13;;;;;;;10.63;7.72;;;;;;;;;;10328418;28;20426;-46
2023/01/05 20:27:14;;;;;;;12.57;7.88;;;;;;;;;;10336332;28;20038;-46
2023/01/05 20:32:21;;;;;;;11.57;7.93;;;;;;;;;;10348736;28;20121;-46
2023/01/05 20:37:22;;;;;;;12.40;7.53;;;;;;;;;;10332930;28;20053;-47
2023/01/05 20:42:23;;;;;;;9.73;7.88;;;;;;;;;;10315323;28;20057;-46
2023/01/05 20:47:24;;;;;;;10.90;7.45;;;;;;;;;;10345109;28;20046;-51
2023/01/05 20:52:24;;;;;;;11.20;7.18;;;;;;;;;;10344187;28;20378;-49
2023/01/05 20:57:26;;;;;;;12.30;7.70;;;;;;;;;;10348996;28;20359;-50
2023/01/05 21:02:27;;;;;;;11.20;7.35;;;;;;;;;;10354627;28;20058;-47
2023/01/05 21:07:27;;;;;;;14.50;7.63;;;;;;;;;;10330422;28;20188;-46
2023/01/05 21:12:28;;;;;;;12.30;8.02;;;;;;;;;;10327794;28;20586;-46
2023/01/05 21:17:28;;;;;;;9.10;6.80;;;;;;;;;;10336247;28;20442;-52
2023/01/05 21:22:29;;;;;;;9.00;7.20;;;;;;;;;;10326678;28;20390;-55
2023/01/05 21:27:29;;;;;;;13.38;7.80;;;;;;;;;;10329409;28;20418;-50
2023/01/05 21:32:30;;;;;;;13.70;7.60;;;;;;;;;;10325977;28;20489;-47
2023/01/05 21:37:30;;;;;;;10.32;7.25;;;;;;;;;;10318684;28;20477;-47
2023/01/05 21:42:43;;;;;;;12.75;7.78;;;;;;;;;;10328756;28;20050;-49
2023/01/05 21:47:49;;;;;;;14.73;7.90;;;;;;;;;;10325411;28;20072;-52
2023/01/05 21:58:09;;;;;;;9.07;6.80;;;;;;;;;;10328058;28;20034;-51
2023/01/05 22:03:10;;;;;;;10.48;6.88;;;;;;;;;;10335755;28;20033;-53
2023/01/05 22:08:11;;;;;;;8.77;7.13;;;;;;;;;;10344555;28;20034;-47
2023/01/05 22:13:11;;;;;;;8.90;6.68;;;;;;;;;;10329753;28;20030;-48
2023/01/05 22:18:12;;;;;;;10.52;7.15;;;;;;;;;;10320538;28;20418;-46
2023/01/05 22:23:12;;;;;;;13.63;7.10;;;;;;;;;;10330271;28;20093;-48
2023/01/05 22:28:13;;;;;;;21.75;8.40;;;;;;;;;;10328466;28;20047;-46
2023/01/05 22:33:14;;;;;;;17.25;8.25;;;;;;;;;;10329232;28;20042;-47
2023/01/05 22:38:14;;;;;;;16.63;7.63;;;;;;;;;;10325165;28;20096;-46
2023/01/05 22:43:15;;;;;;;25.15;7.72;;;;;;;;;;10328232;28;20042;-56
2023/01/05 22:48:17;;;;;;;16.88;7.80;;;;;;;;;;10328016;28;20034;-56
2023/01/05 22:53:17;;;;;;;15.10;7.57;;;;;;;;;;10325587;28;20234;-54
2023/01/05 22:58:18;;;;;;;20.20;7.38;;;;;;;;;;10327936;28;20162;-56
2023/01/05 23:03:20;;;;;;;17.08;7.13;;;;;;;;;;10329104;28;20030;-55
2023/01/05 23:08:21;;;;;;;13.93;7.70;;;;;;;;;;10330983;28;20096;-57
2023/01/05 23:13:21;;;;;;;10.95;7.00;;;;;;;;;;10327883;28;20026;-54
2023/01/05 23:18:23;;;;;;;13.27;7.28;;;;;;;;;;10321479;28;20030;-56
2023/01/05 23:23:25;;;;;;;15.30;7.68;;;;;;;;;;10341488;28;20026;-47
2023/01/05 23:28:27;;;;;;;9.95;7.20;;;;;;;;;;10331745;28;20042;-46
2023/01/05 23:33:35;;;;;;;12.23;8.02;;;;;;;;;;10353125;28;20101;-45
2023/01/05 23:38:36;;;;;;;15.25;7.53;;;;;;;;;;10326222;28;20030;-46
2023/01/05 23:43:39;;;;;;;13.00;7.22;;;;;;;;;;10327609;28;20036;-56
2023/01/05 23:48:40;;;;;;;15.98;7.82;;;;;;;;;;10326603;28;20034;-56
2023/01/05 23:53:46;;;;;;;17.17;7.28;;;;;;;;;;10327402;28;20045;-54
2023/01/05 23:58:48;;;;;;;14.27;7.60;;;;;;;;;;10326939;28;20030;-52
